createdAt,value
2022-10-25T00:01:52.707Z,98419.03
2022-10-25T00:03:58.159Z,98417.03
2022-10-25T00:06:02.879Z,98421.75
2022-10-25T00:08:08.006Z,98418.19
2022-10-25T00:10:12.553Z,98421.91
2022-10-25T00:12:17.301Z,98421.19
2022-10-25T00:14:22.025Z,98414.13
2022-10-25T00:16:28.720Z,98408.28
2022-10-25T00:18:36.495Z,98413.72
2022-10-25T00:20:41.278Z,98411.88
2022-10-25T00:22:46.291Z,98402.41
2022-10-25T00:24:51.017Z,98414.03
2022-10-25T00:26:56.425Z,98419.16
2022-10-25T00:29:01.250Z,98420.88
2022-10-25T00:31:07.364Z,98412.00
2022-10-25T00:33:12.090Z,98418.66
2022-10-25T00:35:19.549Z,98409.03
2022-10-25T00:37:26.563Z,98411.66
2022-10-25T00:39:31.444Z,98414.97
2022-10-25T00:41:37.241Z,98417.88
2022-10-25T00:43:45.677Z,98416.09
2022-10-25T00:45:50.661Z,98411.94
2022-10-25T00:47:59.617Z,98413.59
2022-10-25T00:50:12.565Z,98415.44
2022-10-25T00:52:19.980Z,98424.47
2022-10-25T00:54:29.401Z,98420.72
2022-10-25T00:56:38.445Z,98425.47
2022-10-25T00:58:46.325Z,98423.06
2022-10-25T01:00:51.589Z,98425.78
2022-10-25T01:02:57.110Z,98424.69
2022-10-25T01:05:02.163Z,98422.03
2022-10-25T01:07:06.973Z,98423.59
2022-10-25T01:09:18.853Z,98413.31
2022-10-25T01:11:23.787Z,98413.56
2022-10-25T01:13:28.981Z,98417.00
2022-10-25T01:15:36.547Z,98419.00
2022-10-25T01:17:52.675Z,98424.31
2022-10-25T01:20:29.015Z,98417.38
2022-10-25T01:22:41.845Z,98414.91
2022-10-25T01:25:20.705Z,98420.78
2022-10-25T01:28:05.258Z,98423.53
2022-10-25T01:30:21.748Z,98429.44
2022-10-25T01:32:37.848Z,98419.94
2022-10-25T01:34:49.070Z,98415.00
2022-10-25T01:37:04.150Z,98425.53
2022-10-25T01:39:14.126Z,98421.13
2022-10-25T01:41:26.166Z,98421.13
2022-10-25T01:43:40.070Z,98423.69
2022-10-25T01:45:49.212Z,98417.47
2022-10-25T01:48:02.694Z,98423.38
2022-10-25T01:50:11.663Z,98421.75
2022-10-25T01:52:17.054Z,98431.53
2022-10-25T01:54:25.095Z,98430.53
2022-10-25T01:56:34.875Z,98428.00
2022-10-25T01:58:48.836Z,98430.59
2022-10-25T02:01:01.629Z,98426.59
2022-10-25T02:03:19.652Z,98427.38
2022-10-25T02:05:33.869Z,98429.06
2022-10-25T02:07:41.714Z,98433.44
2022-10-25T02:09:55.281Z,98429.38
2022-10-25T02:12:03.488Z,98435.75
2022-10-25T02:14:18.981Z,98431.28
2022-10-25T02:16:28.099Z,98433.34
2022-10-25T02:18:39.226Z,98430.66
2022-10-25T02:20:46.929Z,98431.34
2022-10-25T02:22:53.915Z,98430.38
2022-10-25T02:25:00.643Z,98432.97
2022-10-25T02:27:07.482Z,98422.03
2022-10-25T02:29:14.641Z,98428.19
2022-10-25T02:31:22.807Z,98426.44
2022-10-25T02:33:28.534Z,98422.03
2022-10-25T02:35:36.142Z,98417.44
2022-10-25T02:37:40.867Z,98417.59
2022-10-25T02:39:46.998Z,98415.06
2022-10-25T02:41:51.694Z,98423.66
2022-10-25T02:43:56.571Z,98426.28
2022-10-25T02:46:01.686Z,98427.28
2022-10-25T02:48:06.612Z,98442.94
2022-10-25T02:50:12.485Z,98435.88
2022-10-25T02:52:19.834Z,98445.78
2022-10-25T02:54:24.756Z,98433.44
2022-10-25T02:56:29.650Z,98444.63
2022-10-25T02:58:36.681Z,98447.25
2022-10-25T03:00:41.491Z,98442.78
2022-10-25T03:02:46.596Z,98441.31
2022-10-25T03:04:51.531Z,98443.88
2022-10-25T03:06:57.621Z,98446.53
2022-10-25T03:09:04.985Z,98449.16
2022-10-25T03:11:10.798Z,98450.94
2022-10-25T03:13:15.580Z,98452.91
2022-10-25T03:15:20.502Z,98455.31
2022-10-25T03:17:25.491Z,98455.31
2022-10-25T03:19:30.176Z,98452.06
2022-10-25T03:21:37.560Z,98439.84
2022-10-25T03:23:44.700Z,98440.63
2022-10-25T03:25:54.563Z,98443.94
2022-10-25T03:28:00.450Z,98447.53
2022-10-25T03:30:05.258Z,98446.78
2022-10-25T03:32:10.034Z,98442.41
2022-10-25T03:34:14.868Z,98442.47
2022-10-25T03:36:20.205Z,98439.84
2022-10-25T03:38:26.488Z,98445.91
2022-10-25T03:40:31.479Z,98453.75
2022-10-25T03:42:41.640Z,98457.28
2022-10-25T03:44:46.337Z,98458.06
2022-10-25T03:46:51.120Z,98460.84
2022-10-25T03:48:55.845Z,98460.97
2022-10-25T03:51:00.597Z,98464.50
2022-10-25T03:53:05.847Z,98461.03
2022-10-25T03:55:11.519Z,98466.41
2022-10-25T03:57:16.436Z,98464.72
2022-10-25T03:59:23.832Z,98472.41
2022-10-25T04:01:30.904Z,98472.47
2022-10-25T04:03:35.804Z,98463.75
2022-10-25T04:05:40.538Z,98474.88
2022-10-25T04:07:45.562Z,98474.78
2022-10-25T04:09:50.639Z,98465.22
2022-10-25T04:11:55.473Z,98469.50
2022-10-25T04:14:00.196Z,98472.97
2022-10-25T04:16:13.004Z,98479.13
2022-10-25T04:18:18.609Z,98471.28
2022-10-25T04:20:26.638Z,98470.34
2022-10-25T04:22:31.409Z,98471.28
2022-10-25T04:24:36.209Z,98467.97
2022-10-25T04:26:40.971Z,98467.09
2022-10-25T04:28:47.551Z,98474.09
2022-10-25T04:30:55.018Z,98482.72
2022-10-25T04:33:02.240Z,98482.91
2022-10-25T04:35:08.158Z,98477.69
2022-10-25T04:37:12.941Z,98481.19
2022-10-25T04:39:18.268Z,98476.84
2022-10-25T04:41:23.743Z,98477.78
2022-10-25T04:43:31.088Z,98478.63
2022-10-25T04:45:39.365Z,98481.28
2022-10-25T04:47:44.086Z,98486.47
2022-10-25T04:49:51.536Z,98489.13
2022-10-25T04:51:56.332Z,98497.03
2022-10-25T04:54:01.132Z,98492.91
2022-10-25T04:56:08.695Z,98496.41
2022-10-25T04:58:13.457Z,98493.88
2022-10-25T05:00:18.325Z,98494.78
2022-10-25T05:02:23.103Z,98484.41
2022-10-25T05:04:27.927Z,98494.16
2022-10-25T05:06:35.316Z,98490.69
2022-10-25T05:08:42.434Z,98491.63
2022-10-25T05:10:47.202Z,98492.53
2022-10-25T05:12:52.067Z,98497.75
2022-10-25T05:14:56.885Z,98503.03
2022-10-25T05:17:01.842Z,98506.56
2022-10-25T05:19:06.611Z,98509.09
2022-10-25T05:21:12.874Z,98511.66
2022-10-25T05:23:20.209Z,98504.66
2022-10-25T05:25:24.934Z,98510.69
2022-10-25T05:27:29.849Z,98517.66
2022-10-25T05:29:35.558Z,98521.03
2022-10-25T05:31:42.140Z,98518.91
2022-10-25T05:33:47.846Z,98528.03
2022-10-25T05:35:52.557Z,98527.63
2022-10-25T05:37:57.267Z,98529.78
2022-10-25T05:40:04.697Z,98529.28
2022-10-25T05:42:09.413Z,98530.63
2022-10-25T05:44:15.037Z,98522.53
2022-10-25T05:46:21.089Z,98522.34
2022-10-25T05:48:25.956Z,98519.63
2022-10-25T05:50:30.721Z,98523.09
2022-10-25T05:52:35.485Z,98523.81
2022-10-25T05:54:40.220Z,98528.81
2022-10-25T05:56:47.584Z,98534.81
2022-10-25T05:58:52.942Z,98531.28
2022-10-25T06:00:57.820Z,98532.91
2022-10-25T06:03:03.951Z,98533.69
2022-10-25T06:05:09.304Z,98539.78
2022-10-25T06:07:13.762Z,98530.31
2022-10-25T06:09:18.550Z,98528.47
2022-10-25T06:11:23.393Z,98530.84
2022-10-25T06:13:30.900Z,98534.03
2022-10-25T06:15:35.765Z,98530.31
2022-10-25T06:17:40.663Z,98538.84
2022-10-25T06:19:45.390Z,98546.56
2022-10-25T06:21:50.178Z,98555.28
2022-10-25T06:23:55.138Z,98550.94
2022-10-25T06:26:02.083Z,98555.97
2022-10-25T06:28:09.458Z,98558.56
2022-10-25T06:30:17.151Z,98557.59
2022-10-25T06:32:21.990Z,98558.47
2022-10-25T06:34:26.857Z,98561.19
2022-10-25T06:36:32.776Z,98564.03
2022-10-25T06:38:37.534Z,98571.28
2022-10-25T06:40:42.294Z,98568.72
2022-10-25T06:42:47.428Z,98579.88
2022-10-25T06:44:52.163Z,98580.56
2022-10-25T06:49:28.466Z,98583.03
2022-10-25T06:51:33.560Z,98588.88
2022-10-25T06:53:38.873Z,98579.09
2022-10-25T06:55:45.099Z,98579.69
2022-10-25T06:57:49.871Z,98575.06
2022-10-25T06:59:54.709Z,98574.66
2022-10-25T07:02:02.337Z,98578.56
2022-10-25T07:04:07.323Z,98578.34
2022-10-25T07:06:14.017Z,98578.19
2022-10-25T07:08:18.842Z,98575.41
2022-10-25T07:10:23.598Z,98573.47
2022-10-25T07:12:28.873Z,98575.16
2022-10-25T07:14:33.719Z,98569.91
2022-10-25T07:16:38.884Z,98582.84
2022-10-25T07:18:46.977Z,98580.09
2022-10-25T07:20:51.760Z,98579.94
2022-10-25T07:22:59.969Z,98578.91
2022-10-25T07:25:06.518Z,98583.84
2022-10-25T07:27:11.273Z,98581.22
2022-10-25T07:29:16.021Z,98582.22
2022-10-25T07:31:22.658Z,98585.91
2022-10-25T07:33:27.411Z,98595.72
2022-10-25T07:35:42.093Z,98592.94
2022-10-25T07:37:57.232Z,98599.00
2022-10-25T07:40:01.990Z,98599.13
2022-10-25T07:42:06.794Z,98603.56
2022-10-25T07:44:16.056Z,98605.56
2022-10-25T07:46:22.298Z,98606.84
2022-10-25T07:48:27.053Z,98616.63
2022-10-25T07:50:34.532Z,98618.31
2022-10-25T07:52:39.345Z,98627.16
2022-10-25T07:56:48.744Z,98627.84
2022-10-25T07:58:53.923Z,98623.44
2022-10-25T08:01:02.835Z,98620.91
2022-10-25T08:03:07.803Z,98624.31
2022-10-25T08:05:12.872Z,98623.38
2022-10-25T08:07:20.230Z,98623.22
2022-10-25T08:09:37.726Z,98623.22
2022-10-25T08:11:43.087Z,98626.63
2022-10-25T08:13:51.332Z,98617.75
2022-10-25T08:15:57.127Z,98620.38
2022-10-25T08:18:02.273Z,98626.31
2022-10-25T08:20:07.198Z,98622.00
2022-10-25T08:22:11.943Z,98618.19
2022-10-25T08:26:26.827Z,98621.09
2022-10-25T08:28:32.332Z,98633.16
2022-10-25T08:30:37.333Z,98624.03
2022-10-25T08:32:42.239Z,98619.81
2022-10-25T08:34:47.010Z,98624.03
2022-10-25T08:36:51.962Z,98627.78
2022-10-25T08:38:56.681Z,98624.78
2022-10-25T08:41:14.032Z,98621.03
2022-10-25T08:43:32.785Z,98619.63
2022-10-25T08:45:43.784Z,98617.63
2022-10-25T08:47:55.868Z,98624.22
2022-10-25T08:50:05.467Z,98619.47
2022-10-25T08:52:21.180Z,98613.72
2022-10-25T08:54:36.004Z,98617.78
2022-10-25T08:56:56.963Z,98616.41
2022-10-25T08:59:09.357Z,98616.41
2022-10-25T09:01:18.781Z,98618.03
2022-10-25T09:03:27.265Z,98609.56
2022-10-25T09:05:40.181Z,98603.72
2022-10-25T09:08:02.057Z,98603.78
2022-10-25T09:10:18.490Z,98606.91
2022-10-25T09:12:35.979Z,98608.63
2022-10-25T09:14:48.487Z,98604.47
2022-10-25T09:16:55.290Z,98603.16
2022-10-25T09:19:00.393Z,98596.72
2022-10-25T09:21:13.539Z,98587.41
2022-10-25T09:23:31.756Z,98595.03
2022-10-25T09:25:45.242Z,98596.91
2022-10-25T09:28:03.687Z,98595.13
2022-10-25T09:30:11.548Z,98596.94
2022-10-25T09:32:22.473Z,98597.88
2022-10-25T09:34:30.630Z,98603.41
2022-10-25T09:36:41.210Z,98609.03
2022-10-25T09:38:50.062Z,98609.25
2022-10-25T09:41:02.778Z,98595.84
2022-10-25T09:43:17.431Z,98599.34
2022-10-25T09:45:28.437Z,98605.78
2022-10-25T09:47:43.035Z,98605.97
2022-10-25T09:49:57.455Z,98610.31
2022-10-25T09:52:09.809Z,98609.72
2022-10-25T09:54:21.999Z,98604.59
2022-10-25T09:56:26.775Z,98617.63
2022-10-25T09:58:36.160Z,98623.31
2022-10-25T10:00:42.964Z,98623.06
2022-10-25T10:02:48.023Z,98627.50
2022-10-25T10:04:53.073Z,98620.25
2022-10-25T10:07:04.238Z,98615.66
2022-10-25T10:09:10.887Z,98612.97
2022-10-25T10:11:20.021Z,98607.03
2022-10-25T10:13:39.100Z,98605.06
2022-10-25T10:15:52.817Z,98616.59
2022-10-25T10:18:29.061Z,98612.00
2022-10-25T10:20:33.875Z,98612.38
2022-10-25T10:22:40.722Z,98603.19
2022-10-25T10:24:47.594Z,98607.97
2022-10-25T10:26:55.765Z,98601.50
2022-10-25T10:29:17.605Z,98600.69
2022-10-25T10:31:22.799Z,98595.50
2022-10-25T10:33:33.364Z,98595.41
2022-10-25T10:35:39.839Z,98600.13
2022-10-25T10:37:44.827Z,98598.59
2022-10-25T10:39:53.303Z,98593.44
2022-10-25T10:42:03.026Z,98587.34
2022-10-25T10:44:16.953Z,98582.66
2022-10-25T10:46:24.831Z,98588.19
2022-10-25T10:48:42.033Z,98593.25
2022-10-25T10:50:51.906Z,98592.50
2022-10-25T10:53:01.117Z,98593.09
2022-10-25T10:55:06.492Z,98583.69
2022-10-25T10:57:27.866Z,98582.34
2022-10-25T10:59:47.615Z,98571.00
2022-10-25T11:01:52.554Z,98582.56
2022-10-25T11:04:01.262Z,98582.69
2022-10-25T11:06:11.025Z,98578.91
2022-10-25T11:08:21.750Z,98581.16
2022-10-25T11:10:36.505Z,98579.22
2022-10-25T11:12:41.431Z,98579.13
2022-10-25T11:14:48.815Z,98585.44
2022-10-25T11:17:04.979Z,98560.53
2022-10-25T11:19:28.856Z,98565.94
2022-10-25T11:22:03.343Z,98567.00
2022-10-25T11:24:23.426Z,98564.44
2022-10-25T11:26:38.427Z,98572.41
2022-10-25T11:28:53.657Z,98560.16
2022-10-25T11:31:08.765Z,98566.59
2022-10-25T11:33:35.542Z,98573.97
2022-10-25T11:35:50.902Z,98561.41
2022-10-25T11:38:04.190Z,98561.25
2022-10-25T11:40:17.666Z,98551.97
2022-10-25T11:42:55.415Z,98552.09
2022-10-25T11:45:24.664Z,98554.09
2022-10-25T11:47:43.350Z,98550.41
2022-10-25T11:50:01.246Z,98550.28
2022-10-25T11:52:22.900Z,98544.50
2022-10-25T11:54:38.798Z,98537.72
2022-10-25T11:56:53.360Z,98544.38
2022-10-25T11:59:06.796Z,98543.44
2022-10-25T12:01:26.743Z,98548.63
2022-10-25T12:03:59.553Z,98544.59
2022-10-25T12:06:19.361Z,98546.38
2022-10-25T12:08:33.848Z,98546.88
2022-10-25T12:10:42.499Z,98556.41
2022-10-25T12:12:51.795Z,98547.44
2022-10-25T12:15:01.002Z,98549.09
2022-10-25T12:17:08.707Z,98550.13
2022-10-25T12:19:23.153Z,98543.56
2022-10-25T12:21:31.117Z,98552.84
2022-10-25T12:23:44.036Z,98542.53
2022-10-25T12:25:53.185Z,98547.34
2022-10-25T12:28:06.911Z,98556.91
2022-10-25T12:30:18.828Z,98544.72
2022-10-25T12:32:28.174Z,98555.63
2022-10-25T12:34:44.158Z,98553.25
2022-10-25T12:36:54.143Z,98549.75
2022-10-25T12:39:02.681Z,98543.06
2022-10-25T12:41:12.293Z,98546.78
2022-10-25T12:43:23.900Z,98552.16
2022-10-25T12:45:58.381Z,98547.56
2022-10-25T12:48:21.085Z,98536.69
2022-10-25T12:50:50.323Z,98542.25
2022-10-25T12:53:29.409Z,98546.28
2022-10-25T12:55:45.984Z,98541.72
2022-10-25T12:58:02.731Z,98543.03
2022-10-25T13:00:14.666Z,98539.53
2022-10-25T13:02:47.687Z,98544.66
2022-10-25T13:05:09.407Z,98545.69
2022-10-25T13:07:18.457Z,98537.28
2022-10-25T13:09:27.291Z,98536.53
2022-10-25T13:11:37.289Z,98535.38
2022-10-25T13:13:49.468Z,98532.59
2022-10-25T13:15:58.203Z,98531.75
2022-10-25T13:18:07.766Z,98532.78
2022-10-25T13:20:45.179Z,98533.53
2022-10-25T13:22:53.093Z,98535.50
2022-10-25T13:24:58.602Z,98526.25
2022-10-25T13:27:22.845Z,98534.84
2022-10-25T13:29:49.947Z,98527.59
2022-10-25T13:32:11.630Z,98530.63
2022-10-25T13:34:34.424Z,98538.63
2022-10-25T13:36:52.496Z,98526.53
2022-10-25T13:39:09.046Z,98524.66
2022-10-25T13:41:19.953Z,98527.31
2022-10-25T13:43:25.009Z,98536.34
2022-10-25T13:45:37.419Z,98533.53
2022-10-25T13:47:44.582Z,98536.13
2022-10-25T13:49:51.039Z,98524.34
2022-10-25T13:51:59.033Z,98521.03
2022-10-25T13:54:11.692Z,98518.69
2022-10-25T13:56:19.118Z,98519.94
2022-10-25T13:58:52.817Z,98514.25
2022-10-25T14:00:59.183Z,98509.81
2022-10-25T14:03:38.158Z,98518.50
2022-10-25T14:06:21.534Z,98516.47
2022-10-25T14:08:32.847Z,98519.97
2022-10-25T14:10:41.268Z,98519.53
2022-10-25T14:12:51.080Z,98523.41
2022-10-25T14:15:05.073Z,98521.84
2022-10-25T14:17:19.090Z,98529.66
2022-10-25T14:19:32.934Z,98522.50
2022-10-25T14:21:41.818Z,98529.34
2022-10-25T14:23:46.623Z,98529.44
2022-10-25T14:25:59.963Z,98531.28
2022-10-25T14:28:10.816Z,98520.75
2022-10-25T14:30:26.877Z,98515.28
2022-10-25T14:32:31.718Z,98524.47
2022-10-25T14:34:36.707Z,98522.66
2022-10-25T14:36:41.633Z,98512.06
2022-10-25T14:38:54.594Z,98512.38
2022-10-25T14:41:04.713Z,98518.06
2022-10-25T14:43:24.984Z,98513.84
2022-10-25T14:45:32.413Z,98516.13
2022-10-25T14:47:38.346Z,98521.31
2022-10-25T14:49:43.187Z,98516.75
2022-10-25T14:51:48.631Z,98522.59
2022-10-25T14:54:00.424Z,98513.38
2022-10-25T14:56:09.358Z,98509.84
2022-10-25T14:58:14.940Z,98510.31
2022-10-25T15:00:22.691Z,98512.84
2022-10-25T15:02:31.750Z,98512.31
2022-10-25T15:04:41.574Z,98513.72
2022-10-25T15:06:46.633Z,98508.00
2022-10-25T15:08:55.679Z,98508.94
2022-10-25T15:11:10.995Z,98513.72
2022-10-25T15:13:19.431Z,98513.19
2022-10-25T15:15:36.448Z,98513.94
2022-10-25T15:17:41.469Z,98519.19
2022-10-25T15:20:02.214Z,98513.63
2022-10-25T15:22:11.590Z,98513.63
2022-10-25T15:24:19.281Z,98503.41
2022-10-25T15:26:35.701Z,98510.47
2022-10-25T15:28:50.118Z,98512.97
2022-10-25T15:31:05.197Z,98520.22
2022-10-25T15:33:13.564Z,98517.13
2022-10-25T15:35:28.944Z,98517.22
2022-10-25T15:37:33.680Z,98517.13
2022-10-25T15:39:38.622Z,98522.41
2022-10-25T15:41:45.995Z,98514.59
2022-10-25T15:43:50.792Z,98514.97
2022-10-25T15:45:56.899Z,98520.16
2022-10-25T15:48:01.835Z,98515.06
2022-10-25T15:50:15.656Z,98521.38
2022-10-25T15:52:20.524Z,98516.19
2022-10-25T15:54:28.920Z,98516.19
2022-10-25T15:56:33.852Z,98524.91
2022-10-25T15:58:41.217Z,98519.78
2022-10-25T16:00:46.656Z,98521.66
2022-10-25T16:02:51.882Z,98520.81
2022-10-25T16:04:56.708Z,98521.06
2022-10-25T16:07:01.434Z,98525.41
2022-10-25T16:09:06.316Z,98522.09
2022-10-25T16:11:16.181Z,98526.72
2022-10-25T16:13:29.248Z,98522.59
2022-10-25T16:15:36.845Z,98529.06
2022-10-25T16:17:41.645Z,98532.78
2022-10-25T16:19:46.374Z,98534.97
2022-10-25T16:21:51.638Z,98533.47
2022-10-25T16:23:56.378Z,98526.50
2022-10-25T16:26:01.284Z,98536.28
2022-10-25T16:28:06.190Z,98541.03
2022-10-25T16:30:16.039Z,98532.78
2022-10-25T16:32:23.343Z,98536.50
2022-10-25T16:34:32.432Z,98542.31
2022-10-25T16:36:37.280Z,98534.50
2022-10-25T16:38:42.088Z,98540.72
2022-10-25T16:40:47.762Z,98531.16
2022-10-25T16:42:52.666Z,98537.25
2022-10-25T16:44:57.402Z,98542.56
2022-10-25T16:47:02.297Z,98542.69
2022-10-25T16:49:09.837Z,98543.63
2022-10-25T16:51:15.687Z,98547.25
2022-10-25T16:53:20.418Z,98556.19
2022-10-25T16:55:26.834Z,98551.91
2022-10-25T16:57:31.571Z,98557.31
2022-10-25T16:59:36.383Z,98561.97
2022-10-25T17:01:44.585Z,98564.84
2022-10-25T17:03:53.965Z,98564.19
2022-10-25T17:06:22.053Z,98566.22
2022-10-25T17:08:30.855Z,98569.31
2022-10-25T17:10:36.210Z,98566.09
2022-10-25T17:12:45.851Z,98567.03
2022-10-25T17:14:50.787Z,98561.97
2022-10-25T17:16:58.314Z,98563.81
2022-10-25T17:19:05.898Z,98577.09
2022-10-25T17:21:15.292Z,98573.72
2022-10-25T17:23:19.990Z,98577.34
2022-10-25T17:25:24.760Z,98583.59
2022-10-25T17:27:31.457Z,98579.41
2022-10-25T17:29:36.217Z,98583.88
2022-10-25T17:31:41.086Z,98584.88
2022-10-25T17:33:46.409Z,98577.19
2022-10-25T17:35:50.891Z,98579.31
2022-10-25T17:37:59.101Z,98573.28
2022-10-25T17:40:04.138Z,98567.22
2022-10-25T17:42:08.701Z,98576.31
2022-10-25T17:44:13.764Z,98580.06
2022-10-25T17:46:19.655Z,98581.41
2022-10-25T17:48:24.530Z,98578.28
2022-10-25T17:50:34.744Z,98580.94
2022-10-25T17:52:41.463Z,98577.50
2022-10-25T17:54:48.918Z,98577.50
2022-10-25T17:56:56.511Z,98582.91
2022-10-25T17:59:04.303Z,98582.06
2022-10-25T18:01:12.373Z,98585.59
2022-10-25T18:03:17.308Z,98577.81
2022-10-25T18:05:23.487Z,98571.75
2022-10-25T18:07:31.250Z,98582.28
2022-10-25T18:09:38.913Z,98574.53
2022-10-25T18:11:46.889Z,98571.13
2022-10-25T18:13:52.327Z,98583.44
2022-10-25T18:15:57.110Z,98579.03
2022-10-25T18:18:02.030Z,98586.22
2022-10-25T18:20:07.555Z,98588.16
2022-10-25T18:22:12.298Z,98588.53
2022-10-25T18:24:17.357Z,98584.47
2022-10-25T18:26:22.215Z,98582.00
2022-10-25T18:28:31.317Z,98582.94
2022-10-25T18:30:36.550Z,98588.50
2022-10-25T18:32:41.331Z,98580.88
2022-10-25T18:34:46.122Z,98577.56
2022-10-25T18:36:50.929Z,98586.38
2022-10-25T18:38:55.891Z,98590.81
2022-10-25T18:41:00.687Z,98582.19
2022-10-25T18:43:05.536Z,98590.88
2022-10-25T18:45:13.145Z,98583.03
2022-10-25T18:47:17.936Z,98587.44
2022-10-25T18:49:22.842Z,98593.50
2022-10-25T18:51:32.042Z,98594.38
2022-10-25T18:53:41.801Z,98590.81
2022-10-25T18:55:47.453Z,98585.44
2022-10-25T18:57:52.390Z,98580.13
2022-10-25T18:59:57.072Z,98574.88
2022-10-25T19:02:05.877Z,98571.41
2022-10-25T19:04:12.275Z,98573.44
2022-10-25T19:06:17.445Z,98579.66
2022-10-25T19:08:22.005Z,98575.66
2022-10-25T19:10:26.851Z,98573.13
2022-10-25T19:12:37.647Z,98571.25
2022-10-25T19:17:16.875Z,98578.53
2022-10-25T19:19:23.287Z,98580.50
2022-10-25T19:21:31.854Z,98578.84
2022-10-25T19:23:37.330Z,98572.03
2022-10-25T19:25:42.199Z,98564.28
2022-10-25T19:27:47.245Z,98579.34
2022-10-25T19:29:52.063Z,98580.56
2022-10-25T19:31:59.348Z,98572.13
2022-10-25T19:34:09.557Z,98580.03
2022-10-25T19:36:18.108Z,98573.19
2022-10-25T19:38:27.415Z,98573.34
2022-10-25T19:40:34.872Z,98576.03
2022-10-25T19:42:43.971Z,98579.56
2022-10-25T19:44:49.578Z,98569.19
2022-10-25T19:46:59.362Z,98575.25
2022-10-25T19:49:13.062Z,98573.44
2022-10-25T19:51:20.143Z,98579.72
2022-10-25T19:53:30.448Z,98573.72
2022-10-25T19:55:38.285Z,98569.41
2022-10-25T19:57:43.872Z,98559.94
2022-10-25T19:59:48.756Z,98563.41
2022-10-25T20:01:59.527Z,98569.50
2022-10-25T20:04:13.953Z,98564.25
2022-10-25T20:06:25.118Z,98562.63
2022-10-25T20:08:43.752Z,98556.63
2022-10-25T20:10:52.882Z,98564.47
2022-10-25T20:12:59.698Z,98568.03
2022-10-25T20:15:04.455Z,98562.09
2022-10-25T20:17:09.313Z,98562.94
2022-10-25T20:19:19.956Z,98562.09
2022-10-25T20:21:29.408Z,98561.16
2022-10-25T20:23:34.250Z,98569.84
2022-10-25T20:25:44.233Z,98577.78
2022-10-25T20:27:53.640Z,98580.41
2022-10-25T20:30:01.157Z,98582.09
2022-10-25T20:32:09.197Z,98583.78
2022-10-25T20:34:14.078Z,98575.94
2022-10-25T20:36:34.765Z,98578.47
2022-10-25T20:38:44.542Z,98577.78
2022-10-25T20:40:53.647Z,98574.41
2022-10-25T20:43:03.026Z,98572.69
2022-10-25T20:45:13.794Z,98582.28
2022-10-25T20:47:20.576Z,98569.31
2022-10-25T20:49:29.395Z,98571.09
2022-10-25T20:51:38.074Z,98574.69
2022-10-25T20:53:44.185Z,98573.91
2022-10-25T20:55:49.569Z,98574.84
2022-10-25T20:57:54.354Z,98573.97
2022-10-25T20:59:59.165Z,98576.59
2022-10-25T21:02:03.983Z,98567.91
2022-10-25T21:04:08.796Z,98569.66
2022-10-25T21:06:14.570Z,98569.66
2022-10-25T21:08:23.019Z,98573.13
2022-10-25T21:10:27.956Z,98574.03
2022-10-25T21:12:32.699Z,98566.19
2022-10-25T21:14:37.621Z,98566.34
2022-10-25T21:16:43.551Z,98569.78
2022-10-25T21:18:48.317Z,98569.00
2022-10-25T21:20:53.698Z,98567.31
2022-10-25T21:22:58.557Z,98557.84
2022-10-25T21:25:06.286Z,98558.84
2022-10-25T21:27:10.986Z,98559.84
2022-10-25T21:29:15.929Z,98554.69
2022-10-25T21:31:20.673Z,98550.50
2022-10-25T21:33:27.838Z,98554.06
2022-10-25T21:35:32.974Z,98546.22
2022-10-25T21:37:37.507Z,98548.28
2022-10-25T21:39:43.477Z,98557.94
2022-10-25T21:41:50.889Z,98555.34
2022-10-25T21:43:57.017Z,98552.81
2022-10-25T21:46:06.382Z,98560.66
2022-10-25T21:48:11.193Z,98546.72
2022-10-25T21:50:16.183Z,98550.19
2022-10-25T21:52:20.915Z,98548.50
2022-10-25T21:54:27.729Z,98552.97
2022-10-25T21:56:33.269Z,98543.34
2022-10-25T21:58:40.738Z,98539.91
2022-10-25T22:00:45.590Z,98536.50
2022-10-25T22:02:50.354Z,98535.66
2022-10-25T22:04:57.522Z,98528.72
2022-10-25T22:07:02.398Z,98531.63
2022-10-25T22:09:07.274Z,98526.69
2022-10-25T22:11:15.874Z,98528.47
2022-10-25T22:13:20.687Z,98528.47
2022-10-25T22:15:30.975Z,98533.59
2022-10-25T22:17:35.694Z,98530.09
2022-10-25T22:19:40.576Z,98522.16
2022-10-25T22:21:45.879Z,98528.09
2022-10-25T22:23:50.810Z,98522.78
2022-10-25T22:25:55.826Z,98517.50
2022-10-25T22:28:00.553Z,98524.41
2022-10-25T22:30:05.352Z,98527.03
2022-10-25T22:32:12.744Z,98521.59
2022-10-25T22:34:17.507Z,98520.66
2022-10-25T22:36:23.692Z,98523.19
2022-10-25T22:38:30.107Z,98516.22
2022-10-25T22:40:34.913Z,98516.22
2022-10-25T22:42:39.632Z,98517.28
2022-10-25T22:44:44.479Z,98519.00
2022-10-25T22:46:49.169Z,98515.44
2022-10-25T22:48:57.876Z,98512.75
2022-10-25T22:51:03.315Z,98517.06
2022-10-25T22:53:08.075Z,98512.00
2022-10-25T22:55:12.789Z,98511.16
2022-10-25T22:57:17.515Z,98513.75
2022-10-25T22:59:22.386Z,98513.88
2022-10-25T23:01:28.635Z,98524.47
2022-10-25T23:03:35.305Z,98522.88
2022-10-25T23:05:42.806Z,98522.16
2022-10-25T23:07:47.552Z,98522.38
2022-10-25T23:09:52.415Z,98523.44
2022-10-25T23:11:57.145Z,98519.28
2022-10-25T23:14:03.742Z,98521.91
2022-10-25T23:16:09.809Z,98514.13
2022-10-25T23:18:14.546Z,98514.91
2022-10-25T23:20:19.431Z,98518.34
2022-10-25T23:22:26.863Z,98508.75
2022-10-25T23:24:31.576Z,98514.91
2022-10-25T23:26:37.930Z,98512.53
2022-10-25T23:28:42.741Z,98507.34
2022-10-25T23:30:47.834Z,98515.38
2022-10-25T23:32:52.552Z,98520.75
2022-10-25T23:34:57.411Z,98517.44
2022-10-25T23:37:02.135Z,98527.09
2022-10-25T23:39:10.581Z,98524.56
2022-10-25T23:41:15.988Z,98516.78
2022-10-25T23:43:20.708Z,98522.00
2022-10-25T23:45:27.692Z,98517.03
2022-10-25T23:47:34.372Z,98515.38
2022-10-25T23:49:39.064Z,98514.59
2022-10-25T23:51:43.773Z,98509.47
2022-10-25T23:53:48.918Z,98510.38
2022-10-25T23:55:57.529Z,98505.28
2022-10-25T23:58:02.770Z,98506.25
